Portada
METAR-TAF:

METAR-TAF

Aeropuertos :

Aeropuerto Internacional de Ahvaz

Ahvaz, Irán

latitud: 31-20N, longitud: 048-40E, altitud: 20 m

Observación

El informe se hizo hace 17 minutos, a las 13:30 UTC
Viento 4 kt del oeste-noroeste
Temperatura 18°C
Humedad 37%
Presión 1020 hPa
Visibilidad 10 km o más
sin nubes por debajo de 1500 m y sin presencia de cumulonimbus.

METAR: OIAW 031330Z 30004KT CAVOK 18/03 Q1020

Hora: 17:17 (13:47 UTC)

Pronóstico

El informe se hizo hace 2 horas y 47 minutos, a las 11:00 UTC
Pronóstico válido del 03 a las 12 UTC al 04 a las 18 UTC
Viento 6 kt del noroeste
Visibilidad: 7000 m
Temporalmente
del 03 a las 20 UTC al 04 a las 04 UTC
Visibilidad: 3000 m
Temporalmente
del 04 a las 08 UTC al 04 a las 12 UTC
Viento 14 kt del oeste-noroeste

TAF: OIAW 031100Z 0312/0418 32006KT 7000 NSC TEMPO 0320/0404 3000 HZ/BR TEMPO 0408/0412 30014KT

Observaciones y pronósticos meteorológicos de más de 4000 aeropuertos (mensajes METAR y TAF).

Los puntos amarillos y rojos representan las estaciones disponibles.

Ponga el ratón en el punto deseado para ver el nombre de la estación.

Haga clic para ver las observaciones y los pronósticos meteorológicos.

Para cambiar el mapa : haga clic en los botones verdes con una cruz de color negro para hacer un zoom, en el botón verde con un guión para alejar o en las flechas verdes para mapas adyacentes.


METAR-TAF: